sensor_id;sensor_type;location;lat;lon;timestamp;P1;durP1;ratioP1;P2;durP2;ratioP2
16073;SDS011;8141;52.664;5.074;2023-04-01T00:00:58;2.27;;;1.70;;
16073;SDS011;8141;52.664;5.074;2023-04-01T00:03:25;2.80;;;1.40;;
16073;SDS011;8141;52.664;5.074;2023-04-01T00:05:52;2.90;;;1.60;;
16073;SDS011;8141;52.664;5.074;2023-04-01T00:08:19;2.80;;;1.50;;
16073;SDS011;8141;52.664;5.074;2023-04-01T00:10:45;2.40;;;1.60;;
16073;SDS011;8141;52.664;5.074;2023-04-01T00:13:11;2.33;;;1.57;;
16073;SDS011;8141;52.664;5.074;2023-04-01T00:15:37;2.30;;;1.80;;
16073;SDS011;8141;52.664;5.074;2023-04-01T00:18:03;2.07;;;1.30;;
16073;SDS011;8141;52.664;5.074;2023-04-01T00:20:29;2.97;;;1.90;;
16073;SDS011;8141;52.664;5.074;2023-04-01T00:22:55;2.27;;;1.40;;
16073;SDS011;8141;52.664;5.074;2023-04-01T00:25:21;2.10;;;1.40;;
16073;SDS011;8141;52.664;5.074;2023-04-01T00:27:47;2.67;;;1.40;;
16073;SDS011;8141;52.664;5.074;2023-04-01T00:30:14;1.97;;;1.53;;
16073;SDS011;8141;52.664;5.074;2023-04-01T00:32:40;3.27;;;1.70;;
16073;SDS011;8141;52.664;5.074;2023-04-01T00:35:06;2.60;;;1.47;;
16073;SDS011;8141;52.664;5.074;2023-04-01T00:37:34;3.07;;;1.70;;
16073;SDS011;8141;52.664;5.074;2023-04-01T00:40:05;3.17;;;1.47;;
16073;SDS011;8141;52.664;5.074;2023-04-01T00:42:36;1.90;;;1.40;;
16073;SDS011;8141;52.664;5.074;2023-04-01T00:45:22;2.03;;;1.30;;
16073;SDS011;8141;52.664;5.074;2023-04-01T00:47:55;2.33;;;1.33;;
16073;SDS011;8141;52.664;5.074;2023-04-01T00:50:24;4.13;;;1.60;;
16073;SDS011;8141;52.664;5.074;2023-04-01T00:52:52;3.30;;;1.50;;
16073;SDS011;8141;52.664;5.074;2023-04-01T00:55:19;2.63;;;1.50;;
16073;SDS011;8141;52.664;5.074;2023-04-01T00:57:46;1.73;;;1.27;;
16073;SDS011;8141;52.664;5.074;2023-04-01T01:00:14;3.13;;;1.27;;
16073;SDS011;8141;52.664;5.074;2023-04-01T01:02:41;1.93;;;1.40;;
16073;SDS011;8141;52.664;5.074;2023-04-01T01:05:14;3.30;;;1.50;;
16073;SDS011;8141;52.664;5.074;2023-04-01T01:10:39;3.17;;;1.63;;
16073;SDS011;8141;52.664;5.074;2023-04-01T01:13:19;2.35;;;1.38;;
16073;SDS011;8141;52.664;5.074;2023-04-01T01:16:43;2.13;;;1.43;;
16073;SDS011;8141;52.664;5.074;2023-04-01T01:22:13;2.57;;;1.53;;
16073;SDS011;8141;52.664;5.074;2023-04-01T01:25:16;3.03;;;1.60;;
16073;SDS011;8141;52.664;5.074;2023-04-01T01:31:07;1.70;;;1.30;;
16073;SDS011;8141;52.664;5.074;2023-04-01T01:37:04;2.93;;;1.60;;
16073;SDS011;8141;52.664;5.074;2023-04-01T01:39:38;2.60;;;1.50;;
16073;SDS011;8141;52.664;5.074;2023-04-01T01:42:08;2.53;;;1.60;;
16073;SDS011;8141;52.664;5.074;2023-04-01T01:44:39;4.07;;;1.80;;
16073;SDS011;8141;52.664;5.074;2023-04-01T01:47:08;3.40;;;1.70;;
16073;SDS011;8141;52.664;5.074;2023-04-01T01:49:34;2.03;;;1.33;;
16073;SDS011;8141;52.664;5.074;2023-04-01T01:52:02;2.13;;;1.50;;
16073;SDS011;8141;52.664;5.074;2023-04-01T01:54:28;2.37;;;1.30;;
16073;SDS011;8141;52.664;5.074;2023-04-01T01:57:16;1.77;;;1.30;;
16073;SDS011;8141;52.664;5.074;2023-04-01T01:59:42;2.97;;;1.20;;
16073;SDS011;8141;52.664;5.074;2023-04-01T02:02:10;1.73;;;1.53;;
16073;SDS011;8141;52.664;5.074;2023-04-01T02:04:38;2.47;;;1.63;;
16073;SDS011;8141;52.664;5.074;2023-04-01T02:07:07;1.87;;;1.30;;
16073;SDS011;8141;52.664;5.074;2023-04-01T02:09:46;1.97;;;1.33;;
16073;SDS011;8141;52.664;5.074;2023-04-01T02:12:13;1.53;;;1.10;;
16073;SDS011;8141;52.664;5.074;2023-04-01T02:17:25;2.23;;;1.20;;
16073;SDS011;8141;52.664;5.074;2023-04-01T02:22:32;1.60;;;1.20;;
16073;SDS011;8141;52.664;5.074;2023-04-01T02:25:20;1.47;;;1.00;;
16073;SDS011;8141;52.664;5.074;2023-04-01T02:27:52;2.07;;;1.60;;
16073;SDS011;8141;52.664;5.074;2023-04-01T02:30:20;1.33;;;0.87;;
16073;SDS011;8141;52.664;5.074;2023-04-01T02:32:46;1.73;;;1.40;;
16073;SDS011;8141;52.664;5.074;2023-04-01T02:35:13;1.43;;;1.07;;
16073;SDS011;8141;52.664;5.074;2023-04-01T02:37:42;1.20;;;1.07;;
16073;SDS011;8141;52.664;5.074;2023-04-01T02:40:11;0.83;;;0.80;;
16073;SDS011;8141;52.664;5.074;2023-04-01T02:42:38;1.13;;;0.80;;
16073;SDS011;8141;52.664;5.074;2023-04-01T02:45:05;1.10;;;0.67;;
16073;SDS011;8141;52.664;5.074;2023-04-01T02:47:32;1.03;;;0.90;;
16073;SDS011;8141;52.664;5.074;2023-04-01T02:49:58;0.90;;;0.77;;
16073;SDS011;8141;52.664;5.074;2023-04-01T02:52:24;1.27;;;0.70;;
16073;SDS011;8141;52.664;5.074;2023-04-01T02:54:50;0.60;;;0.60;;
16073;SDS011;8141;52.664;5.074;2023-04-01T02:57:17;1.07;;;0.70;;
16073;SDS011;8141;52.664;5.074;2023-04-01T02:59:42;0.70;;;0.70;;
16073;SDS011;8141;52.664;5.074;2023-04-01T03:02:08;1.00;;;0.80;;
16073;SDS011;8141;52.664;5.074;2023-04-01T03:04:34;1.63;;;1.00;;
16073;SDS011;8141;52.664;5.074;2023-04-01T03:07:00;1.00;;;0.90;;
16073;SDS011;8141;52.664;5.074;2023-04-01T03:09:26;1.07;;;0.93;;
16073;SDS011;8141;52.664;5.074;2023-04-01T03:11:53;0.70;;;0.60;;
16073;SDS011;8141;52.664;5.074;2023-04-01T03:14:19;0.67;;;0.67;;
16073;SDS011;8141;52.664;5.074;2023-04-01T03:16:45;1.77;;;1.00;;
16073;SDS011;8141;52.664;5.074;2023-04-01T03:19:11;1.23;;;0.70;;
16073;SDS011;8141;52.664;5.074;2023-04-01T03:21:37;0.87;;;0.73;;
16073;SDS011;8141;52.664;5.074;2023-04-01T03:24:02;0.70;;;0.70;;
16073;SDS011;8141;52.664;5.074;2023-04-01T03:26:29;0.90;;;0.70;;
16073;SDS011;8141;52.664;5.074;2023-04-01T03:28:55;1.23;;;0.53;;
16073;SDS011;8141;52.664;5.074;2023-04-01T03:31:21;0.80;;;0.80;;
16073;SDS011;8141;52.664;5.074;2023-04-01T03:33:47;0.90;;;0.70;;
16073;SDS011;8141;52.664;5.074;2023-04-01T03:36:13;0.70;;;0.70;;
16073;SDS011;8141;52.664;5.074;2023-04-01T03:38:39;0.77;;;0.63;;
16073;SDS011;8141;52.664;5.074;2023-04-01T03:41:06;0.90;;;0.67;;
16073;SDS011;8141;52.664;5.074;2023-04-01T03:43:32;0.73;;;0.73;;
16073;SDS011;8141;52.664;5.074;2023-04-01T03:45:58;0.90;;;0.80;;
16073;SDS011;8141;52.664;5.074;2023-04-01T03:48:24;0.60;;;0.60;;
16073;SDS011;8141;52.664;5.074;2023-04-01T03:50:51;0.73;;;0.70;;
16073;SDS011;8141;52.664;5.074;2023-04-01T03:53:17;0.93;;;0.80;;
16073;SDS011;8141;52.664;5.074;2023-04-01T03:55:43;0.87;;;0.80;;
16073;SDS011;8141;52.664;5.074;2023-04-01T03:58:08;0.83;;;0.70;;
16073;SDS011;8141;52.664;5.074;2023-04-01T04:00:35;0.83;;;0.57;;
16073;SDS011;8141;52.664;5.074;2023-04-01T04:03:01;0.63;;;0.60;;
16073;SDS011;8141;52.664;5.074;2023-04-01T04:05:27;0.70;;;0.70;;
16073;SDS011;8141;52.664;5.074;2023-04-01T04:07:53;0.83;;;0.83;;
16073;SDS011;8141;52.664;5.074;2023-04-01T04:10:19;0.77;;;0.73;;
16073;SDS011;8141;52.664;5.074;2023-04-01T04:12:45;1.07;;;0.70;;
16073;SDS011;8141;52.664;5.074;2023-04-01T04:15:11;1.10;;;0.63;;
16073;SDS011;8141;52.664;5.074;2023-04-01T04:17:37;0.40;;;0.40;;
16073;SDS011;8141;52.664;5.074;2023-04-01T04:20:03;0.50;;;0.50;;
16073;SDS011;8141;52.664;5.074;2023-04-01T04:22:30;0.60;;;0.60;;
16073;SDS011;8141;52.664;5.074;2023-04-01T04:24:55;0.70;;;0.70;;
16073;SDS011;8141;52.664;5.074;2023-04-01T04:27:21;1.27;;;0.70;;
16073;SDS011;8141;52.664;5.074;2023-04-01T04:29:47;0.87;;;0.60;;
16073;SDS011;8141;52.664;5.074;2023-04-01T04:32:12;0.60;;;0.53;;
16073;SDS011;8141;52.664;5.074;2023-04-01T04:34:38;0.63;;;0.60;;
16073;SDS011;8141;52.664;5.074;2023-04-01T04:37:04;1.70;;;0.70;;
16073;SDS011;8141;52.664;5.074;2023-04-01T04:39:30;0.60;;;0.60;;
16073;SDS011;8141;52.664;5.074;2023-04-01T04:41:55;0.60;;;0.60;;
16073;SDS011;8141;52.664;5.074;2023-04-01T04:44:21;0.53;;;0.53;;
16073;SDS011;8141;52.664;5.074;2023-04-01T04:46:47;0.63;;;0.63;;
16073;SDS011;8141;52.664;5.074;2023-04-01T04:49:13;0.50;;;0.50;;
16073;SDS011;8141;52.664;5.074;2023-04-01T04:51:39;0.60;;;0.60;;
16073;SDS011;8141;52.664;5.074;2023-04-01T04:54:05;0.50;;;0.50;;
16073;SDS011;8141;52.664;5.074;2023-04-01T04:56:32;0.63;;;0.60;;
16073;SDS011;8141;52.664;5.074;2023-04-01T04:58:58;0.70;;;0.70;;
16073;SDS011;8141;52.664;5.074;2023-04-01T05:01:24;1.10;;;0.90;;
16073;SDS011;8141;52.664;5.074;2023-04-01T05:03:50;0.80;;;0.80;;
16073;SDS011;8141;52.664;5.074;2023-04-01T05:06:16;0.87;;;0.80;;
16073;SDS011;8141;52.664;5.074;2023-04-01T05:08:43;1.17;;;0.70;;
16073;SDS011;8141;52.664;5.074;2023-04-01T05:11:12;1.17;;;0.70;;
16073;SDS011;8141;52.664;5.074;2023-04-01T05:13:41;0.97;;;0.90;;
16073;SDS011;8141;52.664;5.074;2023-04-01T05:16:08;0.80;;;0.80;;
16073;SDS011;8141;52.664;5.074;2023-04-01T05:18:40;1.23;;;0.83;;
16073;SDS011;8141;52.664;5.074;2023-04-01T05:21:09;0.87;;;0.70;;
16073;SDS011;8141;52.664;5.074;2023-04-01T05:23:37;0.60;;;0.60;;
16073;SDS011;8141;52.664;5.074;2023-04-01T05:26:10;0.80;;;0.57;;
16073;SDS011;8141;52.664;5.074;2023-04-01T05:28:38;1.10;;;0.70;;
16073;SDS011;8141;52.664;5.074;2023-04-01T05:31:05;0.70;;;0.70;;
16073;SDS011;8141;52.664;5.074;2023-04-01T05:33:31;1.33;;;1.00;;
16073;SDS011;8141;52.664;5.074;2023-04-01T05:36:05;0.80;;;0.80;;
16073;SDS011;8141;52.664;5.074;2023-04-01T05:38:39;1.37;;;0.90;;
16073;SDS011;8141;52.664;5.074;2023-04-01T05:41:05;0.63;;;0.63;;
16073;SDS011;8141;52.664;5.074;2023-04-01T05:43:31;1.70;;;1.00;;
16073;SDS011;8141;52.664;5.074;2023-04-01T05:45:57;0.80;;;0.70;;
16073;SDS011;8141;52.664;5.074;2023-04-01T05:48:23;0.77;;;0.60;;
16073;SDS011;8141;52.664;5.074;2023-04-01T05:50:49;0.83;;;0.83;;
16073;SDS011;8141;52.664;5.074;2023-04-01T05:53:15;0.70;;;0.67;;
16073;SDS011;8141;52.664;5.074;2023-04-01T05:55:41;1.03;;;0.70;;
16073;SDS011;8141;52.664;5.074;2023-04-01T05:58:06;0.80;;;0.80;;
16073;SDS011;8141;52.664;5.074;2023-04-01T06:00:32;1.37;;;0.70;;
16073;SDS011;8141;52.664;5.074;2023-04-01T06:02:58;0.80;;;0.80;;
16073;SDS011;8141;52.664;5.074;2023-04-01T06:05:26;1.57;;;1.23;;
16073;SDS011;8141;52.664;5.074;2023-04-01T06:07:55;1.30;;;0.90;;
16073;SDS011;8141;52.664;5.074;2023-04-01T06:10:33;1.43;;;1.10;;
16073;SDS011;8141;52.664;5.074;2023-04-01T06:16:10;0.87;;;0.80;;
16073;SDS011;8141;52.664;5.074;2023-04-01T06:21:43;0.80;;;0.73;;
16073;SDS011;8141;52.664;5.074;2023-04-01T06:36:50;1.10;;;0.93;;
16073;SDS011;8141;52.664;5.074;2023-04-01T06:39:45;1.33;;;1.13;;
16073;SDS011;8141;52.664;5.074;2023-04-01T06:45:12;1.05;;;0.95;;
16073;SDS011;8141;52.664;5.074;2023-04-01T06:48:11;0.87;;;0.80;;
16073;SDS011;8141;52.664;5.074;2023-04-01T06:53:58;1.40;;;0.90;;
16073;SDS011;8141;52.664;5.074;2023-04-01T06:56:40;1.53;;;1.13;;
16073;SDS011;8141;52.664;5.074;2023-04-01T06:59:17;1.20;;;1.10;;
16073;SDS011;8141;52.664;5.074;2023-04-01T07:06:54;2.50;;;1.30;;
16073;SDS011;8141;52.664;5.074;2023-04-01T07:09:40;1.67;;;1.10;;
16073;SDS011;8141;52.664;5.074;2023-04-01T07:12:19;1.53;;;1.00;;
16073;SDS011;8141;52.664;5.074;2023-04-01T07:15:01;1.48;;;1.20;;
16073;SDS011;8141;52.664;5.074;2023-04-01T07:17:39;1.10;;;1.00;;
16073;SDS011;8141;52.664;5.074;2023-04-01T07:20:20;1.00;;;0.80;;
16073;SDS011;8141;52.664;5.074;2023-04-01T07:22:57;1.03;;;0.63;;
16073;SDS011;8141;52.664;5.074;2023-04-01T07:25:27;1.27;;;1.10;;
16073;SDS011;8141;52.664;5.074;2023-04-01T07:28:02;1.20;;;0.90;;
16073;SDS011;8141;52.664;5.074;2023-04-01T07:36:46;1.93;;;1.00;;
16073;SDS011;8141;52.664;5.074;2023-04-01T07:45:29;1.33;;;0.97;;
16073;SDS011;8141;52.664;5.074;2023-04-01T07:51:32;1.30;;;1.00;;
16073;SDS011;8141;52.664;5.074;2023-04-01T07:57:00;1.50;;;1.40;;
16073;SDS011;8141;52.664;5.074;2023-04-01T08:00:04;1.70;;;1.10;;
16073;SDS011;8141;52.664;5.074;2023-04-01T08:02:53;1.87;;;1.10;;
16073;SDS011;8141;52.664;5.074;2023-04-01T08:05:48;1.60;;;1.07;;
16073;SDS011;8141;52.664;5.074;2023-04-01T08:11:57;2.63;;;1.50;;
16073;SDS011;8141;52.664;5.074;2023-04-01T08:20:43;2.50;;;1.20;;
16073;SDS011;8141;52.664;5.074;2023-04-01T08:23:18;0.87;;;0.87;;
16073;SDS011;8141;52.664;5.074;2023-04-01T08:25:53;1.80;;;1.40;;
16073;SDS011;8141;52.664;5.074;2023-04-01T08:31:19;2.30;;;1.80;;
16073;SDS011;8141;52.664;5.074;2023-04-01T08:34:47;1.57;;;1.47;;
16073;SDS011;8141;52.664;5.074;2023-04-01T08:37:28;1.10;;;1.00;;
16073;SDS011;8141;52.664;5.074;2023-04-01T08:39:58;1.90;;;1.30;;
16073;SDS011;8141;52.664;5.074;2023-04-01T08:43:02;1.20;;;1.00;;
16073;SDS011;8141;52.664;5.074;2023-04-01T08:58:11;3.20;;;1.53;;
16073;SDS011;8141;52.664;5.074;2023-04-01T09:29:51;2.27;;;1.90;;
16073;SDS011;8141;52.664;5.074;2023-04-01T09:32:24;2.37;;;1.97;;
16073;SDS011;8141;52.664;5.074;2023-04-01T09:46:50;2.07;;;1.50;;
16073;SDS011;8141;52.664;5.074;2023-04-01T09:49:50;1.83;;;1.43;;
16073;SDS011;8141;52.664;5.074;2023-04-01T09:53:07;1.53;;;1.20;;
16073;SDS011;8141;52.664;5.074;2023-04-01T09:56:12;1.87;;;1.10;;
16073;SDS011;8141;52.664;5.074;2023-04-01T10:06:03;2.80;;;1.63;;
16073;SDS011;8141;52.664;5.074;2023-04-01T10:21:35;2.00;;;1.43;;
16073;SDS011;8141;52.664;5.074;2023-04-01T10:27:21;1.67;;;1.30;;
16073;SDS011;8141;52.664;5.074;2023-04-01T10:32:58;2.90;;;1.43;;
16073;SDS011;8141;52.664;5.074;2023-04-01T10:44:48;2.00;;;1.80;;
16073;SDS011;8141;52.664;5.074;2023-04-01T10:50:44;1.80;;;1.70;;
16073;SDS011;8141;52.664;5.074;2023-04-01T11:22:57;1.77;;;1.27;;
16073;SDS011;8141;52.664;5.074;2023-04-01T11:26:05;1.60;;;1.40;;
16073;SDS011;8141;52.664;5.074;2023-04-01T11:34:50;1.35;;;1.20;;
16073;SDS011;8141;52.664;5.074;2023-04-01T11:45:08;3.10;;;1.23;;
16073;SDS011;8141;52.664;5.074;2023-04-01T11:47:45;2.43;;;1.17;;
16073;SDS011;8141;52.664;5.074;2023-04-01T12:05:28;2.10;;;1.23;;
16073;SDS011;8141;52.664;5.074;2023-04-01T12:14:39;1.70;;;1.13;;
16073;SDS011;8141;52.664;5.074;2023-04-01T12:28:28;2.10;;;1.23;;
16073;SDS011;8141;52.664;5.074;2023-04-01T12:37:13;1.73;;;1.10;;
16073;SDS011;8141;52.664;5.074;2023-04-01T12:43:50;1.10;;;0.80;;
16073;SDS011;8141;52.664;5.074;2023-04-01T12:49:45;1.27;;;1.00;;
16073;SDS011;8141;52.664;5.074;2023-04-01T13:09:37;1.20;;;0.90;;
16073;SDS011;8141;52.664;5.074;2023-04-01T13:15:18;1.00;;;0.80;;
16073;SDS011;8141;52.664;5.074;2023-04-01T13:23:52;2.70;;;1.20;;
16073;SDS011;8141;52.664;5.074;2023-04-01T13:26:21;0.83;;;0.83;;
16073;SDS011;8141;52.664;5.074;2023-04-01T13:29:15;1.67;;;1.10;;
16073;SDS011;8141;52.664;5.074;2023-04-01T13:37:22;0.90;;;0.80;;
16073;SDS011;8141;52.664;5.074;2023-04-01T13:40:33;1.57;;;0.90;;
16073;SDS011;8141;52.664;5.074;2023-04-01T13:48:40;1.40;;;0.90;;
16073;SDS011;8141;52.664;5.074;2023-04-01T14:01:13;1.70;;;0.73;;
16073;SDS011;8141;52.664;5.074;2023-04-01T14:12:31;1.63;;;0.70;;
16073;SDS011;8141;52.664;5.074;2023-04-01T14:15:36;1.30;;;0.97;;
16073;SDS011;8141;52.664;5.074;2023-04-01T14:23:58;1.37;;;0.90;;
16073;SDS011;8141;52.664;5.074;2023-04-01T14:26:56;1.30;;;0.90;;
16073;SDS011;8141;52.664;5.074;2023-04-01T14:39:12;0.90;;;0.80;;
16073;SDS011;8141;52.664;5.074;2023-04-01T14:42:17;2.10;;;1.07;;
16073;SDS011;8141;52.664;5.074;2023-04-01T14:44:57;1.03;;;0.70;;
16073;SDS011;8141;52.664;5.074;2023-04-01T14:47:58;1.73;;;0.93;;
16073;SDS011;8141;52.664;5.074;2023-04-01T14:50:53;2.07;;;1.00;;
16073;SDS011;8141;52.664;5.074;2023-04-01T14:53:28;3.70;;;1.03;;
16073;SDS011;8141;52.664;5.074;2023-04-01T14:55:59;3.23;;;1.00;;
16073;SDS011;8141;52.664;5.074;2023-04-01T15:13:26;1.37;;;0.70;;
16073;SDS011;8141;52.664;5.074;2023-04-01T15:16:21;1.97;;;0.97;;
16073;SDS011;8141;52.664;5.074;2023-04-01T15:22:34;0.73;;;0.60;;
16073;SDS011;8141;52.664;5.074;2023-04-01T15:25:25;1.50;;;0.70;;
16073;SDS011;8141;52.664;5.074;2023-04-01T15:40:03;1.77;;;1.00;;
16073;SDS011;8141;52.664;5.074;2023-04-01T15:45:58;2.00;;;1.20;;
16073;SDS011;8141;52.664;5.074;2023-04-01T15:52:03;4.03;;;1.50;;
16073;SDS011;8141;52.664;5.074;2023-04-01T16:11:49;1.50;;;0.90;;
16073;SDS011;8141;52.664;5.074;2023-04-01T16:18:15;1.13;;;0.77;;
16073;SDS011;8141;52.664;5.074;2023-04-01T16:27:08;1.00;;;0.80;;
16073;SDS011;8141;52.664;5.074;2023-04-01T16:32:57;1.17;;;0.77;;
16073;SDS011;8141;52.664;5.074;2023-04-01T16:35:58;0.70;;;0.57;;
16073;SDS011;8141;52.664;5.074;2023-04-01T16:38:36;0.63;;;0.50;;
16073;SDS011;8141;52.664;5.074;2023-04-01T16:41:36;0.60;;;0.53;;
16073;SDS011;8141;52.664;5.074;2023-04-01T16:44:24;0.70;;;0.70;;
16073;SDS011;8141;52.664;5.074;2023-04-01T16:46:53;1.03;;;0.60;;
16073;SDS011;8141;52.664;5.074;2023-04-01T16:55:35;1.00;;;0.50;;
16073;SDS011;8141;52.664;5.074;2023-04-01T16:58:32;0.80;;;0.70;;
16073;SDS011;8141;52.664;5.074;2023-04-01T17:01:38;0.63;;;0.60;;
16073;SDS011;8141;52.664;5.074;2023-04-01T17:07:29;1.95;;;0.70;;
16073;SDS011;8141;52.664;5.074;2023-04-01T17:14:27;1.27;;;0.67;;
16073;SDS011;8141;52.664;5.074;2023-04-01T17:16:56;2.13;;;0.87;;
16073;SDS011;8141;52.664;5.074;2023-04-01T17:22:53;1.07;;;0.70;;
16073;SDS011;8141;52.664;5.074;2023-04-01T17:47:59;2.27;;;0.90;;
16073;SDS011;8141;52.664;5.074;2023-04-01T17:53:30;0.97;;;0.70;;
16073;SDS011;8141;52.664;5.074;2023-04-01T17:59:16;1.37;;;1.00;;
16073;SDS011;8141;52.664;5.074;2023-04-01T18:01:55;0.83;;;0.60;;
16073;SDS011;8141;52.664;5.074;2023-04-01T18:11:08;0.80;;;0.80;;
16073;SDS011;8141;52.664;5.074;2023-04-01T18:14:23;0.70;;;0.70;;
16073;SDS011;8141;52.664;5.074;2023-04-01T18:17:06;2.30;;;0.70;;
16073;SDS011;8141;52.664;5.074;2023-04-01T18:23:11;1.50;;;1.00;;
16073;SDS011;8141;52.664;5.074;2023-04-01T18:25:53;1.20;;;1.03;;
16073;SDS011;8141;52.664;5.074;2023-04-01T18:39:23;1.27;;;0.90;;
16073;SDS011;8141;52.664;5.074;2023-04-01T18:45:22;0.93;;;0.80;;
16073;SDS011;8141;52.664;5.074;2023-04-01T18:48:37;0.93;;;0.83;;
16073;SDS011;8141;52.664;5.074;2023-04-01T18:53:55;1.87;;;1.37;;
16073;SDS011;8141;52.664;5.074;2023-04-01T18:56:29;1.03;;;0.93;;
16073;SDS011;8141;52.664;5.074;2023-04-01T19:04:42;1.33;;;1.20;;
16073;SDS011;8141;52.664;5.074;2023-04-01T19:19:41;1.63;;;1.07;;
16073;SDS011;8141;52.664;5.074;2023-04-01T19:27:46;3.13;;;1.37;;
16073;SDS011;8141;52.664;5.074;2023-04-01T19:35:59;2.43;;;1.60;;
16073;SDS011;8141;52.664;5.074;2023-04-01T19:47:03;3.13;;;1.27;;
16073;SDS011;8141;52.664;5.074;2023-04-01T19:50:00;2.27;;;1.40;;
16073;SDS011;8141;52.664;5.074;2023-04-01T20:00:58;2.25;;;1.40;;
16073;SDS011;8141;52.664;5.074;2023-04-01T20:03:30;2.07;;;1.40;;
16073;SDS011;8141;52.664;5.074;2023-04-01T20:06:06;1.50;;;1.10;;
16073;SDS011;8141;52.664;5.074;2023-04-01T20:08:52;1.93;;;1.20;;
16073;SDS011;8141;52.664;5.074;2023-04-01T20:27:53;2.00;;;1.10;;
16073;SDS011;8141;52.664;5.074;2023-04-01T20:36:23;1.67;;;1.30;;
16073;SDS011;8141;52.664;5.074;2023-04-01T20:45:15;5.23;;;1.70;;
16073;SDS011;8141;52.664;5.074;2023-04-01T20:51:06;1.90;;;1.33;;
16073;SDS011;8141;52.664;5.074;2023-04-01T21:02:45;4.37;;;2.00;;
16073;SDS011;8141;52.664;5.074;2023-04-01T21:08:31;2.30;;;1.70;;
16073;SDS011;8141;52.664;5.074;2023-04-01T21:17:50;1.97;;;1.50;;
16073;SDS011;8141;52.664;5.074;2023-04-01T21:20:47;2.03;;;1.50;;
16073;SDS011;8141;52.664;5.074;2023-04-01T21:33:19;3.87;;;1.70;;
16073;SDS011;8141;52.664;5.074;2023-04-01T21:36:10;2.40;;;1.47;;
16073;SDS011;8141;52.664;5.074;2023-04-01T21:50:47;1.83;;;1.50;;
16073;SDS011;8141;52.664;5.074;2023-04-01T22:03:13;2.67;;;1.90;;
16073;SDS011;8141;52.664;5.074;2023-04-01T22:09:31;3.78;;;2.05;;
16073;SDS011;8141;52.664;5.074;2023-04-01T22:12:10;2.07;;;1.67;;
16073;SDS011;8141;52.664;5.074;2023-04-01T22:23:19;1.83;;;1.73;;
16073;SDS011;8141;52.664;5.074;2023-04-01T22:26:13;2.40;;;1.93;;
16073;SDS011;8141;52.664;5.074;2023-04-01T22:29:10;1.50;;;1.30;;
16073;SDS011;8141;52.664;5.074;2023-04-01T22:31:52;3.10;;;1.77;;
16073;SDS011;8141;52.664;5.074;2023-04-01T22:37:18;2.47;;;1.90;;
16073;SDS011;8141;52.664;5.074;2023-04-01T22:42:42;3.07;;;1.70;;
16073;SDS011;8141;52.664;5.074;2023-04-01T22:53:50;2.93;;;1.60;;
16073;SDS011;8141;52.664;5.074;2023-04-01T22:56:30;2.03;;;1.70;;
16073;SDS011;8141;52.664;5.074;2023-04-01T23:01:58;2.77;;;1.70;;
16073;SDS011;8141;52.664;5.074;2023-04-01T23:04:32;2.37;;;1.43;;
16073;SDS011;8141;52.664;5.074;2023-04-01T23:07:05;4.10;;;1.60;;
16073;SDS011;8141;52.664;5.074;2023-04-01T23:09:55;1.93;;;1.37;;
16073;SDS011;8141;52.664;5.074;2023-04-01T23:12:23;3.13;;;1.67;;
16073;SDS011;8141;52.664;5.074;2023-04-01T23:14:58;2.33;;;1.50;;
16073;SDS011;8141;52.664;5.074;2023-04-01T23:20:12;2.37;;;1.60;;
16073;SDS011;8141;52.664;5.074;2023-04-01T23:28:44;1.43;;;1.30;;
16073;SDS011;8141;52.664;5.074;2023-04-01T23:31:30;2.70;;;1.50;;
16073;SDS011;8141;52.664;5.074;2023-04-01T23:34:02;2.30;;;1.53;;
16073;SDS011;8141;52.664;5.074;2023-04-01T23:36:47;1.97;;;1.30;;
16073;SDS011;8141;52.664;5.074;2023-04-01T23:39:25;2.00;;;1.30;;
16073;SDS011;8141;52.664;5.074;2023-04-01T23:42:03;3.40;;;1.52;;
16073;SDS011;8141;52.664;5.074;2023-04-01T23:44:39;2.23;;;1.50;;
16073;SDS011;8141;52.664;5.074;2023-04-01T23:47:05;4.27;;;1.83;;
16073;SDS011;8141;52.664;5.074;2023-04-01T23:49:43;2.78;;;1.50;;
16073;SDS011;8141;52.664;5.074;2023-04-01T23:52:17;2.00;;;1.37;;
16073;SDS011;8141;52.664;5.074;2023-04-01T23:55:03;2.07;;;1.37;;
16073;SDS011;8141;52.664;5.074;2023-04-01T23:57:35;2.47;;;1.40;;
